Time;durP1;ratioP1;P1;durP2;ratioP2;P2;SDS_P1;SDS_P2;PMS_P1;PMS_P2;Temp;Humidity;BMP_temperature;BMP_pressure;BME280_temperature;BME280_humidity;BME280_pressure;Samples;Min_cycle;Max_cycle;Signal;HPM_P1;HPM_P2
2022/09/07 00:00:54;;;;;;;7.78;3.65;;;20.30;91.10;;;;;;5128141;27;20051;-74
2022/09/07 00:03:20;;;;;;;;;;;20.20;91.40;;;;;;5114432;28;20048;-73
2022/09/07 00:05:47;;;;;;;7.55;3.75;;;20.20;93.50;;;;;;5112580;28;19973;-74
2022/09/07 00:08:15;;;;;;;10.30;4.53;;;20.20;91.80;;;;;;5115671;27;20146;-73
2022/09/07 00:10:49;;;;;;;7.50;3.88;;;20.20;91.90;;;;;;5120440;27;20039;-73
2022/09/07 00:13:15;;;;;;;8.43;3.95;;;20.10;92.30;;;;;;5114917;27;20051;-74
2022/09/07 00:15:40;;;;;;;;;;;20.10;92.30;;;;;;5114599;28;20119;-75
2022/09/07 00:18:06;;;;;;;13.45;4.20;;;20.00;94.30;;;;;;5095382;28;19923;-74
2022/09/07 00:20:32;;;;;;;;;;;20.00;92.80;;;;;;5127189;27;20404;-73
2022/09/07 00:22:57;;;;;;;8.20;4.10;;;20.00;94.40;;;;;;5132584;27;19999;-76
2022/09/07 00:25:23;;;;;;;;;;;19.90;92.90;;;;;;5116585;27;20468;-76
2022/09/07 00:27:49;;;;;;;8.63;3.88;;;20.00;95.10;;;;;;5134275;27;20395;-73
2022/09/07 00:30:14;;;;;;;;;;;20.00;93.00;;;;;;5134252;27;20042;-74
2022/09/07 00:32:40;;;;;;;11.00;4.43;;;20.00;95.80;;;;;;5132899;27;19927;-75
2022/09/07 00:35:06;;;;;;;;;;;20.00;93.80;;;;;;5095477;28;20434;-75
2022/09/07 00:37:31;;;;;;;9.00;4.40;;;20.00;96.50;;;;;;5124487;27;20288;-75
2022/09/07 00:39:57;;;;;;;;;;;20.00;94.40;;;;;;5134240;27;20049;-76
2022/09/07 00:42:22;;;;;;;7.22;4.05;;;19.90;97.40;;;;;;5129663;27;20014;-74
2022/09/07 00:44:54;;;;;;;;;;;19.90;94.90;;;;;;5134156;27;20031;-75
2022/09/07 00:47:24;;;;;;;7.65;4.03;;;19.80;97.00;;;;;;5131474;27;20782;-75
2022/09/07 00:50:01;;;;;;;10.15;4.88;;;19.70;95.20;;;;;;5131843;27;20391;-75
2022/09/07 00:52:29;;;;;;;11.07;4.93;;;19.70;95.50;;;;;;5126809;27;20043;-75
2022/09/07 00:55:00;;;;;;;12.98;5.50;;;19.40;99.10;;;;;;5128898;27;20103;-74
2022/09/07 00:57:30;;;;;;;12.18;6.05;;;19.10;99.90;;;;;;5132145;27;20472;-72
2022/09/07 00:59:57;;;;;;;20.25;7.40;;;18.90;99.90;;;;;;5131687;27;20055;-73
2022/09/07 01:02:23;;;;;;;19.63;8.75;;;18.60;99.90;;;;;;5128303;27;20043;-73
2022/09/07 01:04:54;;;;;;;14.85;8.73;;;18.30;99.90;;;;;;5129808;27;20044;-74
2022/09/07 01:07:20;;;;;;;14.57;8.73;;;18.00;99.90;;;;;;5091785;27;20108;-74
2022/09/07 01:09:47;;;;;;;15.60;8.23;;;17.80;99.90;;;;;;5113573;27;20062;-74
2022/09/07 01:12:13;;;;;;;54.50;11.25;;;17.60;99.90;;;;;;5128202;27;20487;-73
2022/09/07 01:14:42;;;;;;;22.05;10.10;;;17.50;99.90;;;;;;5131509;27;20369;-73
2022/09/07 01:17:45;;;;;;;20.38;10.52;;;17.40;99.90;;;;;;5127385;27;20082;-74
2022/09/07 01:20:28;;;;;;;21.70;10.50;;;17.30;99.90;;;;;;5130643;27;20468;-74
2022/09/07 01:23:09;;;;;;;20.83;9.75;;;17.30;99.90;;;;;;5126076;27;20176;-75
2022/09/07 01:26:04;;;;;;;18.58;9.75;;;17.30;99.90;;;;;;5126738;27;20054;-74
2022/09/07 01:28:33;;;;;;;18.10;10.68;;;17.30;99.90;;;;;;5041363;27;20506;-73
2022/09/07 01:31:08;;;;;;;19.85;11.88;;;17.40;99.90;;;;;;5132181;27;20484;-74
2022/09/07 01:33:55;;;;;;;23.98;12.35;;;17.50;99.90;;;;;;5110150;28;20358;-74
2022/09/07 01:36:27;;;;;;;15.32;9.63;;;17.60;99.90;;;;;;5126532;27;20051;-73
2022/09/07 01:38:57;;;;;;;19.35;10.48;;;17.60;99.90;;;;;;5112546;28;20049;-73
2022/09/07 01:41:48;;;;;;;17.38;9.68;;;17.60;99.90;;;;;;5124404;27;20107;-73
2022/09/07 01:44:29;;;;;;;16.88;9.63;;;17.60;99.90;;;;;;5128145;27;20040;-73
2022/09/07 01:47:08;;;;;;;16.38;8.32;;;17.60;99.90;;;;;;5111987;28;20040;-73
2022/09/07 01:49:51;;;;;;;15.95;7.45;;;17.60;99.90;;;;;;5114256;27;20593;-73
2022/09/07 01:52:32;;;;;;;12.07;7.10;;;17.50;99.90;;;;;;5130344;27;20047;-73
2022/09/07 01:55:05;;;;;;;13.15;7.82;;;17.50;99.90;;;;;;5132754;27;20505;-73
2022/09/07 01:57:38;;;;;;;12.65;8.50;;;17.50;99.90;;;;;;5132749;27;20089;-72
2022/09/07 02:00:11;;;;;;;19.52;8.27;;;17.50;99.90;;;;;;5131636;27;20416;-75
2022/09/07 02:03:00;;;;;;;13.50;7.95;;;17.50;99.90;;;;;;5111689;28;20050;-73
2022/09/07 02:05:48;;;;;;;16.83;9.02;;;17.50;99.90;;;;;;5131860;27;20047;-73
2022/09/07 02:08:19;;;;;;;15.40;8.30;;;17.50;99.90;;;;;;5116892;27;20040;-73
2022/09/07 02:10:58;;;;;;;15.60;8.82;;;17.50;99.90;;;;;;5119098;27;20043;-73
2022/09/07 02:13:39;;;;;;;17.30;9.80;;;17.50;99.90;;;;;;5093246;28;20048;-73
2022/09/07 02:16:19;;;;;;;15.60;8.90;;;17.50;99.90;;;;;;5111316;28;20511;-75
2022/09/07 02:18:49;;;;;;;16.83;9.40;;;17.50;99.90;;;;;;5111964;28;20070;-73
2022/09/07 02:21:20;;;;;;;23.05;11.45;;;17.50;99.90;;;;;;5109250;28;20039;-73
2022/09/07 02:23:52;;;;;;;18.83;9.75;;;17.50;99.90;;;;;;5093861;28;20063;-73
2022/09/07 02:26:21;;;;;;;16.98;10.07;;;17.50;99.90;;;;;;5111225;28;20059;-73
2022/09/07 02:28:47;;;;;;;20.58;10.27;;;17.60;99.90;;;;;;5101583;28;20493;-73
2022/09/07 02:31:13;;;;;;;;;;;17.50;99.90;;;;;;5111088;28;20089;-72
2022/09/07 02:33:39;;;;;;;17.52;10.35;;;17.60;99.90;;;;;;5120772;27;20007;-73
2022/09/07 02:36:06;;;;;;;18.30;10.98;;;17.50;99.90;;;;;;5129801;27;20128;-74
2022/09/07 02:38:32;;;;;;;16.60;10.52;;;17.50;99.90;;;;;;5111314;28;20043;-73
2022/09/07 02:41:00;;;;;;;20.45;11.43;;;17.50;99.90;;;;;;5111229;28;20054;-73
2022/09/07 02:43:26;;;;;;;24.48;12.45;;;17.60;99.90;;;;;;5110925;28;20189;-73
2022/09/07 02:46:06;;;;;;;17.98;10.52;;;17.60;99.90;;;;;;5118309;27;20053;-73
2022/09/07 02:48:50;;;;;;;21.33;11.23;;;17.60;99.90;;;;;;5120003;27;20048;-72
2022/09/07 02:51:43;;;;;;;19.33;10.60;;;17.60;99.90;;;;;;5108527;28;20055;-72
2022/09/07 02:54:34;;;;;;;20.40;10.93;;;17.50;99.90;;;;;;5110967;28;20039;-75
2022/09/07 02:57:07;;;;;;;17.90;10.68;;;17.50;99.90;;;;;;5111420;28;20039;-73
2022/09/07 02:59:51;;;;;;;15.85;9.80;;;17.40;99.90;;;;;;5110920;28;20040;-73
2022/09/07 03:02:50;;;;;;;19.65;9.57;;;17.40;99.90;;;;;;5110106;28;20043;-73
2022/09/07 03:05:20;;;;;;;12.82;8.20;;;17.40;99.90;;;;;;5110845;28;20059;-72
2022/09/07 03:08:03;;;;;;;11.70;7.32;;;17.40;99.90;;;;;;5115767;28;20043;-73
2022/09/07 03:10:29;;;;;;;15.07;7.07;;;17.50;99.90;;;;;;5120708;28;20206;-73
2022/09/07 03:12:55;;;;;;;11.98;6.90;;;17.40;99.90;;;;;;5113335;28;20048;-72
2022/09/07 03:15:25;;;;;;;12.35;7.55;;;17.40;99.90;;;;;;5114704;28;20555;-72
2022/09/07 03:17:52;;;;;;;13.48;7.20;;;17.40;99.90;;;;;;5117633;27;20126;-73
2022/09/07 03:20:19;;;;;;;11.20;6.80;;;17.40;99.90;;;;;;5132668;27;20054;-73
2022/09/07 03:22:46;;;;;;;10.10;6.80;;;17.40;99.90;;;;;;5113051;28;20485;-72
2022/09/07 03:25:12;;;;;;;21.17;7.95;;;17.40;99.90;;;;;;5125660;27;20049;-73
2022/09/07 03:27:38;;;;;;;;;;;17.30;99.90;;;;;;5117490;27;20051;-73
2022/09/07 03:30:05;;;;;;;12.73;8.48;;;17.30;99.90;;;;;;5117033;27;19923;-73
2022/09/07 03:32:33;;;;;;;14.50;8.27;;;17.30;99.90;;;;;;5134518;27;20039;-73
2022/09/07 03:35:00;;;;;;;15.18;7.97;;;17.30;99.90;;;;;;5135290;27;20047;-73
2022/09/07 03:37:25;;;;;;;16.42;8.73;;;17.30;99.90;;;;;;5098484;28;20417;-73
2022/09/07 03:39:51;;;;;;;16.85;8.50;;;17.30;99.90;;;;;;5132982;27;20043;-73
2022/09/07 03:42:17;;;;;;;;;;;17.30;99.90;;;;;;5114547;27;20068;-73
2022/09/07 03:44:44;;;;;;;16.17;9.57;;;17.30;99.90;;;;;;5114363;28;19920;-72
2022/09/07 03:47:09;;;;;;;16.58;9.95;;;17.30;99.90;;;;;;5114290;28;20131;-73
2022/09/07 03:49:35;;;;;;;18.63;10.68;;;17.20;99.90;;;;;;5114003;28;20134;-73
2022/09/07 03:52:01;;;;;;;;;;;17.20;99.90;;;;;;5113059;28;20048;-73
2022/09/07 03:54:27;;;;;;;20.80;10.10;;;17.10;99.90;;;;;;5113977;28;19969;-73
2022/09/07 03:56:52;;;;;;;19.60;11.45;;;17.20;99.90;;;;;;5114681;27;20039;-73
2022/09/07 03:59:18;;;;;;;17.23;10.45;;;17.10;99.90;;;;;;5114336;28;20092;-73
2022/09/07 04:01:44;;;;;;;;;;;17.10;99.90;;;;;;5114393;28;20082;-73
2022/09/07 04:04:09;;;;;;;16.83;10.70;;;17.10;99.90;;;;;;5114236;28;19931;-73
2022/09/07 04:06:35;;;;;;;;;;;17.10;99.90;;;;;;5112445;28;20051;-73
2022/09/07 04:09:09;;;;;;;27.25;11.95;;;17.10;99.90;;;;;;5130071;27;19919;-73
2022/09/07 04:11:35;;;;;;;22.63;12.38;;;17.10;99.90;;;;;;5113545;28;20093;-72
2022/09/07 04:14:00;;;;;;;21.42;12.65;;;17.00;99.90;;;;;;5114015;28;20386;-73
2022/09/07 04:16:26;;;;;;;;;;;17.10;99.90;;;;;;5114065;27;20079;-73
2022/09/07 04:18:57;;;;;;;22.60;11.32;;;17.00;99.90;;;;;;5113763;28;20565;-73
2022/09/07 04:21:24;;;;;;;22.83;12.07;;;17.00;99.90;;;;;;5112209;27;20397;-73
2022/09/07 04:23:50;;;;;;;20.13;11.82;;;17.00;99.90;;;;;;5113288;28;20494;-73
2022/09/07 04:26:28;;;;;;;25.92;12.75;;;17.00;99.90;;;;;;5113446;28;20054;-74
2022/09/07 04:28:55;;;;;;;20.23;11.45;;;17.00;99.90;;;;;;5113870;28;20070;-73
2022/09/07 04:31:22;;;;;;;24.38;13.05;;;17.00;99.90;;;;;;5112813;28;20540;-73
2022/09/07 04:33:48;;;;;;;24.27;12.40;;;17.00;99.90;;;;;;5128618;27;20051;-73
2022/09/07 04:36:16;;;;;;;24.52;13.88;;;17.00;99.90;;;;;;5130958;27;20122;-74
2022/09/07 04:38:42;;;;;;;23.52;12.93;;;17.00;99.90;;;;;;5113630;28;20047;-73
2022/09/07 04:41:17;;;;;;;22.58;12.88;;;17.00;99.90;;;;;;5114384;27;20055;-73
2022/09/07 04:43:43;;;;;;;22.95;13.02;;;17.00;99.90;;;;;;5133873;27;20051;-73
2022/09/07 04:46:29;;;;;;;23.02;12.98;;;17.00;99.90;;;;;;5133383;27;20463;-73
2022/09/07 04:49:00;;;;;;;25.33;12.82;;;17.00;99.90;;;;;;5132560;27;20043;-74
2022/09/07 04:51:28;;;;;;;21.85;12.77;;;17.00;99.90;;;;;;5131030;27;20065;-73
2022/09/07 04:53:55;;;;;;;25.83;12.77;;;17.00;99.90;;;;;;5133749;27;20047;-73
2022/09/07 04:56:22;;;;;;;21.65;12.70;;;17.00;99.90;;;;;;5094830;28;20547;-73
2022/09/07 04:58:48;;;;;;;20.98;12.25;;;17.00;99.90;;;;;;5096993;28;20509;-73
2022/09/07 05:01:17;;;;;;;23.25;13.02;;;17.00;99.90;;;;;;5112786;27;20043;-74
2022/09/07 05:03:44;;;;;;;21.63;11.73;;;17.00;99.90;;;;;;5112517;28;20047;-73
2022/09/07 05:06:11;;;;;;;22.10;12.90;;;17.00;99.90;;;;;;5111100;28;20101;-73
2022/09/07 05:08:41;;;;;;;21.88;12.80;;;17.00;99.90;;;;;;5112529;28;20109;-73
2022/09/07 05:11:08;;;;;;;25.45;13.90;;;17.00;99.90;;;;;;5094298;28;20047;-72
2022/09/07 05:13:34;;;;;;;24.67;13.75;;;17.10;99.90;;;;;;5112417;28;20051;-73
2022/09/07 05:16:16;;;;;;;23.67;13.65;;;17.10;99.90;;;;;;5112512;28;20074;-73
2022/09/07 05:18:42;;;;;;;22.08;12.68;;;17.10;99.90;;;;;;5112431;28;20074;-73
2022/09/07 05:21:14;;;;;;;25.13;14.13;;;17.10;99.90;;;;;;5110658;28;20104;-74
2022/09/07 05:23:41;;;;;;;24.27;13.82;;;17.10;99.90;;;;;;5125624;27;20039;-73
2022/09/07 05:26:08;;;;;;;24.63;13.32;;;17.00;99.90;;;;;;5131792;27;20560;-73
2022/09/07 05:28:34;;;;;;;21.88;13.65;;;17.00;99.90;;;;;;5120252;27;20047;-73
2022/09/07 05:31:11;;;;;;;26.98;13.73;;;17.00;99.90;;;;;;5113236;27;20130;-73
2022/09/07 05:33:37;;;;;;;25.60;13.82;;;17.00;99.90;;;;;;5126584;27;20587;-73
2022/09/07 05:36:05;;;;;;;23.83;13.90;;;17.00;99.90;;;;;;5110105;28;20151;-74
2022/09/07 05:38:34;;;;;;;23.73;13.77;;;17.00;99.90;;;;;;5111559;28;20515;-73
2022/09/07 05:40:59;;;;;;;26.02;14.68;;;17.00;99.90;;;;;;5112779;27;20052;-73
2022/09/07 05:43:25;;;;;;;25.52;15.68;;;17.00;99.90;;;;;;5111964;28;20054;-73
2022/09/07 05:45:55;;;;;;;24.75;14.23;;;17.00;99.90;;;;;;5112991;27;20048;-73
2022/09/07 05:48:21;;;;;;;24.10;14.32;;;17.00;99.90;;;;;;5093796;28;20519;-73
2022/09/07 05:50:52;;;;;;;33.72;14.25;;;17.10;99.90;;;;;;5110066;28;20056;-73
2022/09/07 05:53:19;;;;;;;26.80;14.32;;;17.10;99.90;;;;;;5111637;28;20055;-73
2022/09/07 05:55:45;;;;;;;28.40;15.05;;;17.10;99.90;;;;;;5108589;27;20412;-73
2022/09/07 05:58:10;;;;;;;27.73;15.95;;;17.10;99.90;;;;;;5132780;27;20055;-73
2022/09/07 06:00:36;;;;;;;;;;;17.20;99.90;;;;;;5132668;27;20419;-73
2022/09/07 06:03:02;;;;;;;24.48;13.80;;;17.20;99.90;;;;;;5132196;27;19929;-73
2022/09/07 06:05:28;;;;;;;28.52;14.18;;;17.20;99.90;;;;;;5131871;27;20399;-74
2022/09/07 06:07:53;;;;;;;25.55;13.43;;;17.20;99.90;;;;;;5112253;27;20138;-73
2022/09/07 06:10:19;;;;;;;26.13;15.15;;;17.30;99.90;;;;;;5121373;27;20063;-74
2022/09/07 06:12:45;;;;;;;;;;;17.20;99.90;;;;;;5093463;28;20147;-74
2022/09/07 06:15:11;;;;;;;26.65;14.38;;;17.20;99.90;;;;;;5111823;28;19927;-73
2022/09/07 06:17:37;;;;;;;25.13;12.63;;;17.30;99.90;;;;;;5110996;28;20044;-74
2022/09/07 06:20:05;;;;;;;24.42;14.02;;;17.30;99.90;;;;;;5115201;27;20556;-73
2022/09/07 06:22:35;;;;;;;24.45;12.60;;;17.30;99.90;;;;;;5109336;28;20066;-73
2022/09/07 06:25:00;;;;;;;22.40;13.02;;;17.30;99.90;;;;;;5093737;28;20391;-73
2022/09/07 06:27:27;;;;;;;23.92;12.75;;;17.30;99.90;;;;;;5095498;27;20047;-75
2022/09/07 06:29:52;;;;;;;;;;;17.20;99.90;;;;;;5129517;27;20039;-73
2022/09/07 06:32:18;;;;;;;20.10;11.15;;;17.20;99.90;;;;;;5124686;27;20078;-74
2022/09/07 06:34:44;;;;;;;18.98;11.70;;;17.20;99.90;;;;;;5094325;27;20113;-75
2022/09/07 06:37:09;;;;;;;;;;;17.60;99.90;;;;;;5119250;27;20134;-74
2022/09/07 06:39:35;;;;;;;24.33;12.80;;;17.50;99.90;;;;;;5131468;27;20352;-76
2022/09/07 06:42:03;;;;;;;22.73;13.25;;;17.40;99.90;;;;;;5131628;27;20035;-71
2022/09/07 06:44:29;;;;;;;23.70;12.18;;;17.40;99.90;;;;;;5113254;28;20055;-76
2022/09/07 06:46:55;;;;;;;22.70;12.90;;;17.40;99.90;;;;;;5131377;27;20073;-77
2022/09/07 06:49:22;;;;;;;21.27;11.70;;;17.40;99.90;;;;;;5113512;27;20055;-75
2022/09/07 06:51:48;;;;;;;23.02;12.20;;;17.40;99.90;;;;;;5129085;27;20950;-75
2022/09/07 06:54:14;;;;;;;23.80;12.40;;;17.40;99.90;;;;;;5130772;28;20055;-74
2022/09/07 06:56:39;;;;;;;;;;;17.40;99.90;;;;;;5122401;28;20519;-75
2022/09/07 06:59:05;;;;;;;24.60;12.50;;;17.40;99.90;;;;;;5111187;28;20342;-75
2022/09/07 07:01:32;;;;;;;;;;;17.40;99.90;;;;;;5092809;28;20071;-75
2022/09/07 07:04:00;;;;;;;21.45;11.27;;;17.40;99.90;;;;;;5110974;28;20387;-75
2022/09/07 07:06:38;;;;;;;22.05;11.30;;;17.50;99.90;;;;;;5127064;27;20048;-75
2022/09/07 07:09:06;;;;;;;25.38;11.20;;;17.50;99.90;;;;;;5126201;28;20062;-75
2022/09/07 07:11:32;;;;;;;20.70;10.32;;;17.90;99.90;;;;;;5130852;28;20117;-75
2022/09/07 07:13:58;;;;;;;;;;;17.60;99.90;;;;;;5125678;28;20039;-75
2022/09/07 07:16:24;;;;;;;26.15;10.70;;;17.50;99.90;;;;;;5114930;28;19920;-75
2022/09/07 07:18:53;;;;;;;;;;;17.60;99.90;;;;;;5117746;28;20051;-75
2022/09/07 07:21:19;;;;;;;21.40;10.27;;;17.60;99.90;;;;;;5108959;28;19942;-75
2022/09/07 07:23:49;;;;;;;24.23;11.73;;;17.70;99.90;;;;;;5110496;28;20473;-74
2022/09/07 07:26:21;;;;;;;23.77;12.07;;;18.00;99.90;;;;;;5092962;28;20044;-75
2022/09/07 07:28:50;;;;;;;25.83;11.43;;;17.70;99.90;;;;;;5119450;28;20491;-75
2022/09/07 07:31:17;;;;;;;22.98;11.85;;;17.70;99.90;;;;;;5130849;28;20074;-75
2022/09/07 07:36:46;;;;;;;23.27;10.98;;;17.70;99.90;;;;;;5108477;28;20050;-75
2022/09/07 07:39:12;;;;;;;24.75;12.45;;;17.70;99.90;;;;;;5111416;28;20040;-72
2022/09/07 07:41:38;;;;;;;19.80;11.50;;;17.80;99.90;;;;;;5101179;28;20499;-75
2022/09/07 07:44:03;;;;;;;;;;;17.70;99.90;;;;;;5131897;28;20493;-76
2022/09/07 07:46:31;;;;;;;27.17;12.73;;;17.80;99.90;;;;;;5128789;28;19926;-75
2022/09/07 07:48:57;;;;;;;28.13;12.25;;;17.80;99.90;;;;;;5119985;28;20048;-75
2022/09/07 07:51:23;;;;;;;28.40;13.77;;;17.80;99.90;;;;;;5109937;27;20479;-70
2022/09/07 07:53:49;;;;;;;31.00;13.85;;;17.80;99.90;;;;;;5116415;28;20043;-71
2022/09/07 07:56:15;;;;;;;28.70;13.90;;;17.80;99.90;;;;;;5120888;27;20085;-71
2022/09/07 07:58:45;;;;;;;29.67;13.90;;;17.80;99.90;;;;;;5125885;27;20043;-71
2022/09/07 08:01:13;;;;;;;27.42;12.73;;;17.80;99.90;;;;;;5123974;27;20039;-70
2022/09/07 08:03:40;;;;;;;26.63;14.05;;;17.90;99.90;;;;;;5120319;27;20526;-70
2022/09/07 08:06:14;;;;;;;26.05;13.32;;;17.90;99.90;;;;;;5124885;27;20057;-72
2022/09/07 08:08:41;;;;;;;27.95;13.27;;;17.90;99.90;;;;;;5126494;27;20039;-71
2022/09/07 08:11:16;;;;;;;35.53;14.20;;;18.00;99.90;;;;;;5121818;27;20047;-70
2022/09/07 08:13:43;;;;;;;26.27;14.13;;;18.10;99.90;;;;;;5126731;27;20078;-72
2022/09/07 08:16:10;;;;;;;29.15;14.65;;;18.20;99.90;;;;;;5132093;27;20039;-70
2022/09/07 08:18:37;;;;;;;28.20;13.88;;;18.20;99.90;;;;;;5113669;27;20129;-75
2022/09/07 08:21:15;;;;;;;29.15;14.30;;;18.30;99.90;;;;;;5110975;28;20060;-71
2022/09/07 08:23:41;;;;;;;26.48;13.75;;;18.30;99.90;;;;;;5112457;28;20841;-69
2022/09/07 08:26:07;;;;;;;;;;;18.40;99.90;;;;;;5115947;27;20051;-71
2022/09/07 08:28:38;;;;;;;25.42;13.40;;;18.50;99.90;;;;;;5113565;27;20019;-72
2022/09/07 08:31:06;;;;;;;26.25;13.68;;;18.50;99.90;;;;;;5112733;28;20122;-71
2022/09/07 08:33:34;;;;;;;24.52;13.70;;;18.60;99.90;;;;;;5113237;28;20511;-73
2022/09/07 08:36:01;;;;;;;27.42;14.25;;;18.60;99.90;;;;;;5111743;27;20043;-71
2022/09/07 08:38:31;;;;;;;29.85;13.63;;;18.70;99.90;;;;;;5115544;27;20445;-71
2022/09/07 08:40:58;;;;;;;26.17;13.25;;;18.70;99.90;;;;;;5117067;27;20580;-71
2022/09/07 08:43:29;;;;;;;25.98;13.70;;;18.80;99.90;;;;;;5124991;27;20047;-71
2022/09/07 08:46:05;;;;;;;29.02;14.25;;;18.80;99.90;;;;;;5099674;28;20051;-74
2022/09/07 08:48:33;;;;;;;26.67;13.30;;;18.80;99.90;;;;;;5113111;28;20508;-71
2022/09/07 08:51:08;;;;;;;25.88;12.30;;;18.90;99.90;;;;;;5111685;27;20051;-70
2022/09/07 08:53:36;;;;;;;25.67;13.02;;;18.90;99.90;;;;;;5118334;27;20394;-71
2022/09/07 08:56:09;;;;;;;26.50;12.98;;;18.90;99.90;;;;;;5120370;27;20103;-70
2022/09/07 08:58:42;;;;;;;29.42;13.80;;;18.90;99.90;;;;;;5120716;27;20310;-71
2022/09/07 09:01:19;;;;;;;25.70;13.40;;;18.90;99.90;;;;;;5123692;27;20043;-71
2022/09/07 09:03:49;;;;;;;22.35;12.70;;;19.10;99.90;;;;;;5123291;27;20039;-71
2022/09/07 09:06:28;;;;;;;21.02;12.18;;;19.20;99.90;;;;;;5116750;27;20044;-71
2022/09/07 09:09:24;;;;;;;21.77;11.98;;;19.30;99.90;;;;;;5116469;27;20048;-72
2022/09/07 09:12:16;;;;;;;23.73;11.52;;;19.40;99.90;;;;;;5097149;28;20054;-73
2022/09/07 09:15:10;;;;;;;23.00;11.70;;;19.40;99.90;;;;;;5122340;27;20088;-74
2022/09/07 09:18:03;;;;;;;21.73;12.38;;;19.40;99.90;;;;;;5079320;27;20054;-72
2022/09/07 09:20:52;;;;;;;23.08;10.85;;;19.40;99.90;;;;;;5114656;27;20135;-73
2022/09/07 09:23:22;;;;;;;20.88;11.27;;;19.50;99.90;;;;;;5093912;28;20120;-73
2022/09/07 09:25:54;;;;;;;20.88;11.43;;;19.40;99.90;;;;;;5112005;28;20043;-73
2022/09/07 09:28:21;;;;;;;18.95;9.95;;;19.40;99.90;;;;;;5112232;28;20435;-73
2022/09/07 09:30:47;;;;;;;20.40;11.23;;;19.30;99.90;;;;;;5093529;28;20481;-73
2022/09/07 09:33:19;;;;;;;;;;;19.30;99.90;;;;;;5112824;28;20046;-73
2022/09/07 09:35:49;;;;;;;20.13;10.95;;;19.40;99.90;;;;;;5117556;27;19928;-74
2022/09/07 09:38:42;;;;;;;18.85;10.85;;;19.50;99.90;;;;;;5113465;27;20050;-72
2022/09/07 09:41:13;;;;;;;19.27;11.15;;;19.60;99.90;;;;;;5131207;27;20046;-69
2022/09/07 09:43:59;;;;;;;19.85;9.98;;;19.70;99.90;;;;;;5132798;27;20043;-71
2022/09/07 09:46:36;;;;;;;21.33;11.02;;;19.80;99.90;;;;;;5125192;27;20054;-74
2022/09/07 09:49:16;;;;;;;20.13;11.13;;;20.00;99.90;;;;;;5105017;27;20642;-72
2022/09/07 09:51:46;;;;;;;19.45;9.82;;;20.10;99.90;;;;;;5119382;27;20058;-74
2022/09/07 09:54:32;;;;;;;19.10;9.50;;;20.10;99.90;;;;;;5124712;27;20065;-73
2022/09/07 09:56:58;;;;;;;20.90;9.85;;;20.00;99.90;;;;;;5126361;27;20054;-72
2022/09/07 09:59:30;;;;;;;17.83;9.50;;;20.00;99.90;;;;;;5122301;27;20058;-76
2022/09/07 10:01:57;;;;;;;18.58;10.07;;;19.90;99.90;;;;;;5112631;27;20075;-72
2022/09/07 10:04:22;;;;;;;17.63;9.65;;;19.90;99.90;;;;;;5121666;27;20076;-72
2022/09/07 10:06:55;;;;;;;;;;;19.90;99.90;;;;;;5124552;27;20043;-73
2022/09/07 10:09:28;;;;;;;18.95;7.95;;;19.90;99.90;;;;;;5127178;27;20355;-71
2022/09/07 10:11:58;;;;;;;17.58;8.52;;;20.00;99.90;;;;;;5126595;27;20057;-71
2022/09/07 10:14:29;;;;;;;15.63;8.73;;;20.10;99.90;;;;;;5127879;27;20043;-72
2022/09/07 10:16:57;;;;;;;18.75;8.98;;;20.10;99.90;;;;;;5109353;27;20491;-72
2022/09/07 10:19:32;;;;;;;13.77;8.02;;;20.20;99.90;;;;;;5124472;27;20046;-73
2022/09/07 10:22:00;;;;;;;15.02;8.30;;;20.30;99.90;;;;;;5110443;27;20043;-72
2022/09/07 10:24:30;;;;;;;18.67;8.50;;;20.40;99.90;;;;;;5112334;27;20039;-73
2022/09/07 10:26:56;;;;;;;15.00;8.00;;;20.50;99.90;;;;;;5115225;27;20479;-72
2022/09/07 10:29:35;;;;;;;;;;;20.70;99.90;;;;;;5115127;27;20054;-72
2022/09/07 10:32:17;;;;;;;16.02;8.50;;;20.80;99.90;;;;;;5111072;27;19920;-71
2022/09/07 10:35:06;;;;;;;16.95;8.88;;;20.90;99.90;;;;;;5109494;28;20049;-70
2022/09/07 10:38:05;;;;;;;16.52;8.52;;;21.00;99.90;;;;;;5111235;27;20075;-75
2022/09/07 10:40:34;;;;;;;13.95;7.85;;;21.00;99.90;;;;;;5108149;27;20050;-71
2022/09/07 10:43:24;;;;;;;14.13;8.23;;;21.00;99.90;;;;;;5108988;28;20047;-70
2022/09/07 10:46:14;;;;;;;15.98;7.50;;;21.10;99.90;;;;;;5111103;28;20071;-72
2022/09/07 10:48:57;;;;;;;12.85;7.43;;;21.20;99.90;;;;;;5110418;28;20043;-72
2022/09/07 10:51:33;;;;;;;11.93;6.63;;;21.20;99.90;;;;;;5118669;27;20082;-74
2022/09/07 10:54:05;;;;;;;11.73;6.95;;;21.30;99.90;;;;;;5119254;28;20051;-71
2022/09/07 10:56:37;;;;;;;11.48;7.22;;;21.30;99.90;;;;;;5125899;28;20126;-72
2022/09/07 10:59:21;;;;;;;13.45;7.07;;;21.40;99.90;;;;;;5127905;28;20102;-69
2022/09/07 11:01:53;;;;;;;15.15;7.05;;;21.50;99.90;;;;;;5102061;28;20047;-71
2022/09/07 11:04:24;;;;;;;14.75;7.80;;;21.60;99.90;;;;;;5104143;28;20108;-71
2022/09/07 11:06:57;;;;;;;13.25;7.53;;;21.60;99.90;;;;;;5117286;28;20051;-73
2022/09/07 11:09:38;;;;;;;14.75;8.07;;;21.70;99.90;;;;;;5113394;28;20055;-74
2022/09/07 11:12:07;;;;;;;14.02;7.47;;;21.80;99.90;;;;;;5122068;28;20168;-71
2022/09/07 11:14:57;;;;;;;10.55;6.00;;;21.80;99.90;;;;;;5125204;28;20035;-72
2022/09/07 11:17:26;;;;;;;11.55;6.15;;;21.90;99.90;;;;;;5123329;28;20039;-71
2022/09/07 11:20:07;;;;;;;12.18;7.53;;;22.20;99.90;;;;;;5124994;28;20050;-71
2022/09/07 11:22:38;;;;;;;14.35;7.47;;;22.50;99.90;;;;;;5120069;28;20036;-70
2022/09/07 11:25:04;;;;;;;10.45;6.90;;;22.70;99.90;;;;;;5124486;28;20488;-71
2022/09/07 11:27:48;;;;;;;11.45;6.65;;;23.00;99.90;;;;;;5121968;28;20048;-70
2022/09/07 11:30:24;;;;;;;12.32;6.88;;;23.50;99.90;;;;;;5091708;28;20048;-69
2022/09/07 11:33:21;;;;;;;12.60;7.88;;;23.70;99.90;;;;;;5111418;28;20043;-75
2022/09/07 11:35:50;;;;;;;10.80;6.57;;;23.40;99.90;;;;;;5113724;27;20052;-73
2022/09/07 11:38:29;;;;;;;13.05;6.57;;;23.30;99.90;;;;;;5121650;27;20039;-71
2022/09/07 11:41:21;;;;;;;12.23;7.00;;;23.30;99.90;;;;;;5117055;27;20388;-67
2022/09/07 11:44:08;;;;;;;13.98;7.45;;;23.40;99.90;;;;;;5124000;27;20039;-71
2022/09/07 11:46:50;;;;;;;12.65;7.45;;;23.80;99.90;;;;;;5097447;28;20055;-71
2022/09/07 11:49:24;;;;;;;13.07;6.90;;;24.20;99.90;;;;;;5122435;27;20039;-73
2022/09/07 11:51:57;;;;;;;10.57;5.43;;;24.60;99.90;;;;;;5111670;28;20062;-72
2022/09/07 11:54:42;;;;;;;9.90;5.72;;;25.20;99.90;;;;;;5116108;27;20043;-71
2022/09/07 11:57:13;;;;;;;10.82;5.38;;;26.00;99.90;;;;;;5122582;27;20082;-73
2022/09/07 12:00:10;;;;;;;8.57;5.28;;;26.60;99.90;;;;;;5120568;27;20051;-71
2022/09/07 12:02:41;;;;;;;7.80;5.07;;;26.90;99.90;;;;;;5114237;27;20476;-72
2022/09/07 12:05:23;;;;;;;8.93;5.07;;;26.40;99.90;;;;;;5102660;28;20051;-74
2022/09/07 12:08:16;;;;;;;7.55;5.05;;;26.60;99.90;;;;;;5119441;27;20062;-74
2022/09/07 12:11:09;;;;;;;6.38;3.70;;;27.20;99.90;;;;;;5118125;27;20032;-70
2022/09/07 12:13:49;;;;;;;8.55;4.22;;;27.60;99.90;;;;;;5117146;27;20047;-70
2022/09/07 12:16:33;;;;;;;7.95;3.78;;;27.70;99.90;;;;;;5096289;28;20402;-72
2022/09/07 12:19:19;;;;;;;5.28;2.97;;;27.60;99.90;;;;;;5120416;27;20055;-70
2022/09/07 12:21:50;;;;;;;6.03;3.63;;;27.70;99.90;;;;;;5118068;27;20480;-69
2022/09/07 12:24:44;;;;;;;5.05;3.10;;;28.00;99.90;;;;;;5119588;27;20045;-70
2022/09/07 12:27:30;;;;;;;5.97;3.50;;;28.30;93.80;;;;;;5112472;28;20047;-70
2022/09/07 12:29:56;;;;;;;7.47;3.90;;;28.50;99.90;;;;;;5112401;28;20116;-78
2022/09/07 12:32:46;;;;;;;7.05;3.75;;;28.50;99.90;;;;;;5112436;28;20969;-70
2022/09/07 12:35:32;;;;;;;5.72;3.45;;;28.60;99.90;;;;;;5112384;28;20134;-70
2022/09/07 12:38:05;;;;;;;6.40;3.40;;;28.90;99.90;;;;;;5111761;27;20458;-70
2022/09/07 12:40:32;;;;;;;5.97;3.47;;;29.10;99.90;;;;;;5117570;27;20078;-70
2022/09/07 12:43:15;;;;;;;5.80;3.10;;;29.30;99.90;;;;;;5120075;27;20450;-77
2022/09/07 12:45:41;;;;;;;5.50;3.58;;;29.70;96.70;;;;;;5112171;28;20140;-74
2022/09/07 12:48:15;;;;;;;5.82;2.97;;;29.80;99.90;;;;;;5116117;27;20156;-70
2022/09/07 12:51:18;;;;;;;5.28;3.00;;;29.60;99.90;;;;;;5112027;28;20135;-73
2022/09/07 12:54:13;;;;;;;5.43;3.22;;;29.70;83.30;;;;;;5112459;28;20126;-71
2022/09/07 12:56:43;;;;;;;6.13;3.17;;;29.80;93.10;;;;;;5112495;28;20047;-70
2022/09/07 12:59:46;;;;;;;5.22;3.00;;;29.70;99.90;;;;;;5111838;28;20071;-70
2022/09/07 13:02:49;;;;;;;6.72;3.22;;;29.60;81.60;;;;;;5111405;28;20040;-70
2022/09/07 13:05:20;;;;;;;5.05;2.92;;;29.50;86.00;;;;;;5111733;28;20083;-70
2022/09/07 13:08:14;;;;;;;4.88;2.60;;;29.10;99.90;;;;;;5112279;27;20441;-70
2022/09/07 13:10:42;;;;;;;7.30;2.67;;;29.30;91.20;;;;;;5112434;27;20127;-70